sensor_id;sensor_type;location;lat;lon;timestamp;P1;durP1;ratioP1;P2;durP2;ratioP2
18610;SDS011;9435;52.122;5.502;2023-06-14T00:01:57;8.60;;;3.63;;
18610;SDS011;9435;52.122;5.502;2023-06-14T00:04:24;6.03;;;3.58;;
18610;SDS011;9435;52.122;5.502;2023-06-14T00:06:51;8.43;;;3.30;;
18610;SDS011;9435;52.122;5.502;2023-06-14T00:09:18;8.45;;;3.33;;
18610;SDS011;9435;52.122;5.502;2023-06-14T00:11:46;6.93;;;3.20;;
18610;SDS011;9435;52.122;5.502;2023-06-14T00:14:14;9.18;;;3.00;;
18610;SDS011;9435;52.122;5.502;2023-06-14T00:16:41;9.80;;;3.30;;
18610;SDS011;9435;52.122;5.502;2023-06-14T00:19:09;7.32;;;3.28;;
18610;SDS011;9435;52.122;5.502;2023-06-14T00:21:36;14.30;;;3.38;;
18610;SDS011;9435;52.122;5.502;2023-06-14T00:24:03;9.55;;;3.20;;
18610;SDS011;9435;52.122;5.502;2023-06-14T00:26:31;8.30;;;3.10;;
18610;SDS011;9435;52.122;5.502;2023-06-14T00:28:58;7.28;;;3.30;;
18610;SDS011;9435;52.122;5.502;2023-06-14T00:31:26;8.50;;;3.28;;
18610;SDS011;9435;52.122;5.502;2023-06-14T00:33:53;9.23;;;3.30;;
18610;SDS011;9435;52.122;5.502;2023-06-14T00:36:20;8.38;;;3.25;;
18610;SDS011;9435;52.122;5.502;2023-06-14T00:38:48;10.43;;;3.53;;
18610;SDS011;9435;52.122;5.502;2023-06-14T00:41:15;7.40;;;3.30;;
18610;SDS011;9435;52.122;5.502;2023-06-14T00:43:42;9.55;;;3.25;;
18610;SDS011;9435;52.122;5.502;2023-06-14T00:46:09;8.27;;;3.15;;
18610;SDS011;9435;52.122;5.502;2023-06-14T00:48:38;9.75;;;3.10;;
18610;SDS011;9435;52.122;5.502;2023-06-14T00:51:06;9.77;;;3.30;;
18610;SDS011;9435;52.122;5.502;2023-06-14T00:53:33;9.82;;;3.35;;
18610;SDS011;9435;52.122;5.502;2023-06-14T00:56:01;9.95;;;3.35;;
18610;SDS011;9435;52.122;5.502;2023-06-14T00:58:28;10.18;;;3.45;;
18610;SDS011;9435;52.122;5.502;2023-06-14T01:00:56;9.05;;;3.40;;
18610;SDS011;9435;52.122;5.502;2023-06-14T01:03:24;7.65;;;3.03;;
18610;SDS011;9435;52.122;5.502;2023-06-14T01:05:53;8.55;;;3.22;;
18610;SDS011;9435;52.122;5.502;2023-06-14T01:08:37;7.75;;;3.10;;
18610;SDS011;9435;52.122;5.502;2023-06-14T01:11:16;7.68;;;3.10;;
18610;SDS011;9435;52.122;5.502;2023-06-14T01:13:51;8.10;;;3.30;;
18610;SDS011;9435;52.122;5.502;2023-06-14T01:16:19;6.93;;;3.08;;
18610;SDS011;9435;52.122;5.502;2023-06-14T01:18:47;12.40;;;3.22;;
18610;SDS011;9435;52.122;5.502;2023-06-14T01:21:22;9.48;;;3.30;;
18610;SDS011;9435;52.122;5.502;2023-06-14T01:23:51;9.52;;;2.90;;
18610;SDS011;9435;52.122;5.502;2023-06-14T01:26:19;9.52;;;3.42;;
18610;SDS011;9435;52.122;5.502;2023-06-14T01:28:46;10.82;;;3.67;;
18610;SDS011;9435;52.122;5.502;2023-06-14T01:31:16;10.95;;;3.13;;
18610;SDS011;9435;52.122;5.502;2023-06-14T01:33:47;8.82;;;3.13;;
18610;SDS011;9435;52.122;5.502;2023-06-14T01:36:16;5.55;;;3.28;;
18610;SDS011;9435;52.122;5.502;2023-06-14T01:38:44;6.63;;;3.25;;
18610;SDS011;9435;52.122;5.502;2023-06-14T01:41:14;8.27;;;3.00;;
18610;SDS011;9435;52.122;5.502;2023-06-14T01:43:43;10.13;;;3.30;;
18610;SDS011;9435;52.122;5.502;2023-06-14T01:46:11;6.30;;;3.25;;
18610;SDS011;9435;52.122;5.502;2023-06-14T01:48:40;8.75;;;3.08;;
18610;SDS011;9435;52.122;5.502;2023-06-14T01:51:07;11.50;;;3.40;;
18610;SDS011;9435;52.122;5.502;2023-06-14T01:53:34;7.72;;;3.45;;
18610;SDS011;9435;52.122;5.502;2023-06-14T01:56:02;8.43;;;3.38;;
18610;SDS011;9435;52.122;5.502;2023-06-14T01:58:30;7.63;;;3.13;;
18610;SDS011;9435;52.122;5.502;2023-06-14T02:00:58;6.95;;;3.30;;
18610;SDS011;9435;52.122;5.502;2023-06-14T02:03:25;6.65;;;3.20;;
18610;SDS011;9435;52.122;5.502;2023-06-14T02:05:52;4.82;;;3.10;;
18610;SDS011;9435;52.122;5.502;2023-06-14T02:08:20;5.57;;;3.10;;
18610;SDS011;9435;52.122;5.502;2023-06-14T02:10:47;6.35;;;2.90;;
18610;SDS011;9435;52.122;5.502;2023-06-14T02:13:14;8.63;;;3.30;;
18610;SDS011;9435;52.122;5.502;2023-06-14T02:15:43;6.75;;;3.05;;
18610;SDS011;9435;52.122;5.502;2023-06-14T02:18:10;6.95;;;3.17;;
18610;SDS011;9435;52.122;5.502;2023-06-14T02:20:38;8.27;;;3.28;;
18610;SDS011;9435;52.122;5.502;2023-06-14T02:23:05;4.60;;;2.72;;
18610;SDS011;9435;52.122;5.502;2023-06-14T02:25:33;7.47;;;3.00;;
18610;SDS011;9435;52.122;5.502;2023-06-14T02:28:01;6.53;;;3.22;;
18610;SDS011;9435;52.122;5.502;2023-06-14T02:30:28;7.70;;;2.88;;
18610;SDS011;9435;52.122;5.502;2023-06-14T02:32:57;8.18;;;3.45;;
18610;SDS011;9435;52.122;5.502;2023-06-14T02:35:25;6.13;;;3.03;;
18610;SDS011;9435;52.122;5.502;2023-06-14T02:37:52;6.75;;;2.83;;
18610;SDS011;9435;52.122;5.502;2023-06-14T02:40:19;9.20;;;3.20;;
18610;SDS011;9435;52.122;5.502;2023-06-14T02:42:46;5.63;;;3.20;;
18610;SDS011;9435;52.122;5.502;2023-06-14T02:45:13;7.40;;;3.03;;
18610;SDS011;9435;52.122;5.502;2023-06-14T02:47:41;8.35;;;3.35;;
18610;SDS011;9435;52.122;5.502;2023-06-14T02:50:09;8.82;;;3.03;;
18610;SDS011;9435;52.122;5.502;2023-06-14T02:52:37;9.82;;;3.10;;
18610;SDS011;9435;52.122;5.502;2023-06-14T02:55:07;7.22;;;3.28;;
18610;SDS011;9435;52.122;5.502;2023-06-14T02:57:34;7.07;;;3.00;;
18610;SDS011;9435;52.122;5.502;2023-06-14T03:00:02;9.50;;;3.35;;
18610;SDS011;9435;52.122;5.502;2023-06-14T03:02:30;9.38;;;3.25;;
18610;SDS011;9435;52.122;5.502;2023-06-14T03:04:57;8.85;;;3.40;;
18610;SDS011;9435;52.122;5.502;2023-06-14T03:07:27;9.38;;;3.40;;
18610;SDS011;9435;52.122;5.502;2023-06-14T03:09:55;7.43;;;3.10;;
18610;SDS011;9435;52.122;5.502;2023-06-14T03:12:22;7.55;;;3.50;;
18610;SDS011;9435;52.122;5.502;2023-06-14T03:14:50;10.13;;;3.15;;
18610;SDS011;9435;52.122;5.502;2023-06-14T03:17:17;8.68;;;3.10;;
18610;SDS011;9435;52.122;5.502;2023-06-14T03:19:44;6.45;;;3.00;;
18610;SDS011;9435;52.122;5.502;2023-06-14T03:22:11;7.45;;;3.15;;
18610;SDS011;9435;52.122;5.502;2023-06-14T03:24:40;8.27;;;3.72;;
18610;SDS011;9435;52.122;5.502;2023-06-14T03:27:07;5.55;;;3.10;;
18610;SDS011;9435;52.122;5.502;2023-06-14T03:29:35;6.20;;;2.97;;
18610;SDS011;9435;52.122;5.502;2023-06-14T03:32:02;5.35;;;3.03;;
18610;SDS011;9435;52.122;5.502;2023-06-14T03:34:30;10.73;;;3.70;;
18610;SDS011;9435;52.122;5.502;2023-06-14T03:36:57;6.10;;;3.33;;
18610;SDS011;9435;52.122;5.502;2023-06-14T03:39:24;9.55;;;3.15;;
18610;SDS011;9435;52.122;5.502;2023-06-14T03:41:53;6.68;;;3.20;;
18610;SDS011;9435;52.122;5.502;2023-06-14T03:44:20;10.30;;;3.20;;
18610;SDS011;9435;52.122;5.502;2023-06-14T03:46:47;8.50;;;3.13;;
18610;SDS011;9435;52.122;5.502;2023-06-14T03:49:15;13.15;;;3.20;;
18610;SDS011;9435;52.122;5.502;2023-06-14T03:51:42;9.27;;;3.20;;
18610;SDS011;9435;52.122;5.502;2023-06-14T03:54:10;7.47;;;3.20;;
18610;SDS011;9435;52.122;5.502;2023-06-14T03:56:37;7.13;;;3.05;;
18610;SDS011;9435;52.122;5.502;2023-06-14T03:59:05;7.13;;;3.15;;
18610;SDS011;9435;52.122;5.502;2023-06-14T04:01:32;7.95;;;2.88;;
18610;SDS011;9435;52.122;5.502;2023-06-14T04:04:02;8.38;;;3.22;;
18610;SDS011;9435;52.122;5.502;2023-06-14T04:06:29;7.85;;;3.00;;
18610;SDS011;9435;52.122;5.502;2023-06-14T04:08:58;9.68;;;3.35;;
18610;SDS011;9435;52.122;5.502;2023-06-14T04:11:29;6.72;;;3.13;;
18610;SDS011;9435;52.122;5.502;2023-06-14T04:13:57;6.57;;;3.35;;
18610;SDS011;9435;52.122;5.502;2023-06-14T04:16:26;8.73;;;3.20;;
18610;SDS011;9435;52.122;5.502;2023-06-14T04:18:54;6.03;;;3.10;;
18610;SDS011;9435;52.122;5.502;2023-06-14T04:21:23;6.80;;;3.60;;
18610;SDS011;9435;52.122;5.502;2023-06-14T04:23:52;8.15;;;3.20;;
18610;SDS011;9435;52.122;5.502;2023-06-14T04:26:20;8.15;;;3.25;;
18610;SDS011;9435;52.122;5.502;2023-06-14T04:28:48;9.38;;;3.10;;
18610;SDS011;9435;52.122;5.502;2023-06-14T04:31:16;7.70;;;3.50;;
18610;SDS011;9435;52.122;5.502;2023-06-14T04:33:44;7.95;;;3.30;;
18610;SDS011;9435;52.122;5.502;2023-06-14T04:36:12;6.68;;;2.80;;
18610;SDS011;9435;52.122;5.502;2023-06-14T04:38:43;6.13;;;3.10;;
18610;SDS011;9435;52.122;5.502;2023-06-14T04:41:11;8.65;;;3.60;;
18610;SDS011;9435;52.122;5.502;2023-06-14T04:43:39;8.88;;;3.30;;
18610;SDS011;9435;52.122;5.502;2023-06-14T04:46:08;11.88;;;3.33;;
18610;SDS011;9435;52.122;5.502;2023-06-14T04:48:36;9.48;;;3.20;;
18610;SDS011;9435;52.122;5.502;2023-06-14T04:51:06;5.95;;;3.10;;
18610;SDS011;9435;52.122;5.502;2023-06-14T04:53:33;8.65;;;3.00;;
18610;SDS011;9435;52.122;5.502;2023-06-14T04:56:00;9.90;;;3.55;;
18610;SDS011;9435;52.122;5.502;2023-06-14T04:58:28;8.18;;;3.22;;
18610;SDS011;9435;52.122;5.502;2023-06-14T05:00:55;8.60;;;3.30;;
18610;SDS011;9435;52.122;5.502;2023-06-14T05:03:24;7.90;;;3.50;;
18610;SDS011;9435;52.122;5.502;2023-06-14T05:05:52;8.38;;;3.40;;
18610;SDS011;9435;52.122;5.502;2023-06-14T05:08:21;7.55;;;3.20;;
18610;SDS011;9435;52.122;5.502;2023-06-14T05:10:49;10.43;;;3.50;;
18610;SDS011;9435;52.122;5.502;2023-06-14T05:13:17;6.85;;;3.38;;
18610;SDS011;9435;52.122;5.502;2023-06-14T05:15:44;9.27;;;3.50;;
18610;SDS011;9435;52.122;5.502;2023-06-14T05:18:11;7.75;;;3.13;;
18610;SDS011;9435;52.122;5.502;2023-06-14T05:20:39;10.73;;;3.47;;
18610;SDS011;9435;52.122;5.502;2023-06-14T05:23:07;11.65;;;3.50;;
18610;SDS011;9435;52.122;5.502;2023-06-14T05:25:41;10.52;;;3.28;;
18610;SDS011;9435;52.122;5.502;2023-06-14T05:28:08;9.63;;;3.20;;
18610;SDS011;9435;52.122;5.502;2023-06-14T05:30:37;5.30;;;3.15;;
18610;SDS011;9435;52.122;5.502;2023-06-14T05:33:05;10.73;;;3.22;;
18610;SDS011;9435;52.122;5.502;2023-06-14T05:35:32;10.85;;;3.40;;
18610;SDS011;9435;52.122;5.502;2023-06-14T05:37:59;13.70;;;3.47;;
18610;SDS011;9435;52.122;5.502;2023-06-14T05:40:26;7.28;;;3.22;;
18610;SDS011;9435;52.122;5.502;2023-06-14T05:42:55;8.77;;;3.35;;
18610;SDS011;9435;52.122;5.502;2023-06-14T05:45:22;6.30;;;3.10;;
18610;SDS011;9435;52.122;5.502;2023-06-14T05:47:49;7.25;;;3.00;;
18610;SDS011;9435;52.122;5.502;2023-06-14T05:50:17;9.05;;;3.10;;
18610;SDS011;9435;52.122;5.502;2023-06-14T05:52:44;7.63;;;2.90;;
18610;SDS011;9435;52.122;5.502;2023-06-14T05:55:11;6.70;;;3.28;;
18610;SDS011;9435;52.122;5.502;2023-06-14T05:57:38;8.82;;;3.10;;
18610;SDS011;9435;52.122;5.502;2023-06-14T06:00:07;10.00;;;3.10;;
18610;SDS011;9435;52.122;5.502;2023-06-14T06:02:39;7.05;;;3.42;;
18610;SDS011;9435;52.122;5.502;2023-06-14T06:05:07;8.38;;;3.10;;
18610;SDS011;9435;52.122;5.502;2023-06-14T06:07:34;6.72;;;3.00;;
18610;SDS011;9435;52.122;5.502;2023-06-14T06:10:02;6.82;;;3.58;;
18610;SDS011;9435;52.122;5.502;2023-06-14T06:12:30;10.93;;;3.45;;
18610;SDS011;9435;52.122;5.502;2023-06-14T06:14:57;11.32;;;4.00;;
18610;SDS011;9435;52.122;5.502;2023-06-14T06:17:26;7.70;;;3.55;;
18610;SDS011;9435;52.122;5.502;2023-06-14T06:19:53;9.82;;;3.50;;
18610;SDS011;9435;52.122;5.502;2023-06-14T06:22:20;8.43;;;3.40;;
18610;SDS011;9435;52.122;5.502;2023-06-14T06:24:47;11.00;;;3.45;;
18610;SDS011;9435;52.122;5.502;2023-06-14T06:27:15;10.60;;;3.83;;
18610;SDS011;9435;52.122;5.502;2023-06-14T06:29:44;11.73;;;3.45;;
18610;SDS011;9435;52.122;5.502;2023-06-14T06:32:11;6.95;;;3.45;;
18610;SDS011;9435;52.122;5.502;2023-06-14T06:34:39;7.10;;;3.20;;
18610;SDS011;9435;52.122;5.502;2023-06-14T06:37:06;10.30;;;3.25;;
18610;SDS011;9435;52.122;5.502;2023-06-14T06:39:33;8.85;;;3.30;;
18610;SDS011;9435;52.122;5.502;2023-06-14T06:42:01;7.03;;;3.13;;
18610;SDS011;9435;52.122;5.502;2023-06-14T06:44:28;10.57;;;3.38;;
18610;SDS011;9435;52.122;5.502;2023-06-14T06:46:55;11.48;;;3.40;;
18610;SDS011;9435;52.122;5.502;2023-06-14T06:49:23;11.82;;;3.60;;
18610;SDS011;9435;52.122;5.502;2023-06-14T06:52:01;7.53;;;3.45;;
18610;SDS011;9435;52.122;5.502;2023-06-14T06:54:29;8.30;;;3.35;;
18610;SDS011;9435;52.122;5.502;2023-06-14T06:56:56;9.20;;;3.60;;
18610;SDS011;9435;52.122;5.502;2023-06-14T06:59:24;7.85;;;3.33;;
18610;SDS011;9435;52.122;5.502;2023-06-14T07:01:51;8.57;;;3.55;;
18610;SDS011;9435;52.122;5.502;2023-06-14T07:04:18;8.45;;;3.08;;
18610;SDS011;9435;52.122;5.502;2023-06-14T07:06:45;7.57;;;3.30;;
18610;SDS011;9435;52.122;5.502;2023-06-14T07:09:14;5.40;;;2.83;;
18610;SDS011;9435;52.122;5.502;2023-06-14T07:11:43;9.57;;;3.40;;
18610;SDS011;9435;52.122;5.502;2023-06-14T07:14:10;9.48;;;3.05;;
18610;SDS011;9435;52.122;5.502;2023-06-14T07:16:37;6.47;;;3.20;;
18610;SDS011;9435;52.122;5.502;2023-06-14T07:19:06;11.60;;;3.50;;
18610;SDS011;9435;52.122;5.502;2023-06-14T07:21:34;8.80;;;3.22;;
18610;SDS011;9435;52.122;5.502;2023-06-14T07:24:03;9.00;;;3.20;;
18610;SDS011;9435;52.122;5.502;2023-06-14T07:26:32;11.90;;;3.22;;
18610;SDS011;9435;52.122;5.502;2023-06-14T07:29:00;10.15;;;2.80;;
18610;SDS011;9435;52.122;5.502;2023-06-14T07:31:27;8.32;;;3.00;;
18610;SDS011;9435;52.122;5.502;2023-06-14T07:33:54;22.35;;;3.75;;
18610;SDS011;9435;52.122;5.502;2023-06-14T07:36:21;6.70;;;2.45;;
18610;SDS011;9435;52.122;5.502;2023-06-14T07:38:48;7.72;;;2.88;;
18610;SDS011;9435;52.122;5.502;2023-06-14T07:41:15;5.88;;;2.60;;
18610;SDS011;9435;52.122;5.502;2023-06-14T07:43:44;4.68;;;2.30;;
18610;SDS011;9435;52.122;5.502;2023-06-14T07:46:11;6.00;;;2.20;;
18610;SDS011;9435;52.122;5.502;2023-06-14T07:48:38;5.75;;;2.30;;
18610;SDS011;9435;52.122;5.502;2023-06-14T07:51:05;3.42;;;2.10;;
18610;SDS011;9435;52.122;5.502;2023-06-14T07:53:32;4.18;;;2.30;;
18610;SDS011;9435;52.122;5.502;2023-06-14T07:55:59;5.75;;;2.42;;
18610;SDS011;9435;52.122;5.502;2023-06-14T07:58:27;6.15;;;2.30;;
18610;SDS011;9435;52.122;5.502;2023-06-14T08:00:56;5.10;;;2.30;;
18610;SDS011;9435;52.122;5.502;2023-06-14T08:03:23;4.13;;;2.15;;
18610;SDS011;9435;52.122;5.502;2023-06-14T08:05:50;4.70;;;2.10;;
18610;SDS011;9435;52.122;5.502;2023-06-14T08:08:17;5.35;;;2.33;;
18610;SDS011;9435;52.122;5.502;2023-06-14T08:10:45;4.28;;;2.03;;
18610;SDS011;9435;52.122;5.502;2023-06-14T08:13:12;6.22;;;1.88;;
18610;SDS011;9435;52.122;5.502;2023-06-14T08:15:39;4.25;;;1.80;;
18610;SDS011;9435;52.122;5.502;2023-06-14T08:18:07;3.95;;;1.85;;
18610;SDS011;9435;52.122;5.502;2023-06-14T08:20:34;4.13;;;1.50;;
18610;SDS011;9435;52.122;5.502;2023-06-14T08:23:02;5.00;;;2.08;;
18610;SDS011;9435;52.122;5.502;2023-06-14T08:25:30;3.03;;;1.80;;
18610;SDS011;9435;52.122;5.502;2023-06-14T08:27:58;4.70;;;1.60;;
18610;SDS011;9435;52.122;5.502;2023-06-14T08:30:25;2.92;;;1.80;;
18610;SDS011;9435;52.122;5.502;2023-06-14T08:32:53;9.75;;;1.77;;
18610;SDS011;9435;52.122;5.502;2023-06-14T08:35:22;3.22;;;1.60;;
18610;SDS011;9435;52.122;5.502;2023-06-14T08:37:49;5.65;;;1.92;;
18610;SDS011;9435;52.122;5.502;2023-06-14T08:40:20;6.57;;;1.63;;
18610;SDS011;9435;52.122;5.502;2023-06-14T08:42:51;6.40;;;1.95;;
18610;SDS011;9435;52.122;5.502;2023-06-14T08:45:19;4.63;;;1.63;;
18610;SDS011;9435;52.122;5.502;2023-06-14T08:47:46;5.45;;;1.70;;
18610;SDS011;9435;52.122;5.502;2023-06-14T08:50:18;3.70;;;1.45;;
18610;SDS011;9435;52.122;5.502;2023-06-14T08:52:49;5.97;;;1.50;;
18610;SDS011;9435;52.122;5.502;2023-06-14T08:55:20;5.78;;;1.60;;
18610;SDS011;9435;52.122;5.502;2023-06-14T08:57:51;8.20;;;2.15;;
18610;SDS011;9435;52.122;5.502;2023-06-14T09:00:32;6.00;;;1.60;;
18610;SDS011;9435;52.122;5.502;2023-06-14T09:03:03;3.22;;;1.52;;
18610;SDS011;9435;52.122;5.502;2023-06-14T09:05:41;5.15;;;1.60;;
18610;SDS011;9435;52.122;5.502;2023-06-14T09:11:21;3.15;;;1.60;;
18610;SDS011;9435;52.122;5.502;2023-06-14T09:14:02;2.85;;;1.50;;
18610;SDS011;9435;52.122;5.502;2023-06-14T09:16:34;3.17;;;1.70;;
18610;SDS011;9435;52.122;5.502;2023-06-14T09:19:04;2.70;;;1.73;;
18610;SDS011;9435;52.122;5.502;2023-06-14T09:21:33;4.75;;;1.80;;
18610;SDS011;9435;52.122;5.502;2023-06-14T09:24:04;5.10;;;1.83;;
18610;SDS011;9435;52.122;5.502;2023-06-14T09:26:32;4.82;;;1.67;;
18610;SDS011;9435;52.122;5.502;2023-06-14T09:29:08;6.03;;;1.80;;
18610;SDS011;9435;52.122;5.502;2023-06-14T09:34:47;3.78;;;1.45;;
18610;SDS011;9435;52.122;5.502;2023-06-14T09:37:31;7.78;;;1.40;;
18610;SDS011;9435;52.122;5.502;2023-06-14T09:40:00;3.88;;;1.60;;
18610;SDS011;9435;52.122;5.502;2023-06-14T09:42:29;2.10;;;1.50;;
18610;SDS011;9435;52.122;5.502;2023-06-14T09:44:57;4.80;;;1.80;;
18610;SDS011;9435;52.122;5.502;2023-06-14T09:47:24;4.93;;;1.63;;
18610;SDS011;9435;52.122;5.502;2023-06-14T09:49:51;3.72;;;1.92;;
18610;SDS011;9435;52.122;5.502;2023-06-14T09:52:20;4.85;;;1.75;;
18610;SDS011;9435;52.122;5.502;2023-06-14T09:54:48;5.57;;;1.80;;
18610;SDS011;9435;52.122;5.502;2023-06-14T09:57:21;5.45;;;1.60;;
18610;SDS011;9435;52.122;5.502;2023-06-14T09:59:52;6.00;;;1.92;;
18610;SDS011;9435;52.122;5.502;2023-06-14T10:02:24;3.42;;;1.58;;
18610;SDS011;9435;52.122;5.502;2023-06-14T10:04:57;3.75;;;1.58;;
18610;SDS011;9435;52.122;5.502;2023-06-14T10:07:32;2.30;;;1.50;;
18610;SDS011;9435;52.122;5.502;2023-06-14T10:10:01;3.85;;;1.30;;
18610;SDS011;9435;52.122;5.502;2023-06-14T10:12:31;3.10;;;1.40;;
18610;SDS011;9435;52.122;5.502;2023-06-14T10:14:58;5.78;;;1.55;;
18610;SDS011;9435;52.122;5.502;2023-06-14T10:17:30;4.30;;;1.50;;
18610;SDS011;9435;52.122;5.502;2023-06-14T10:20:16;2.97;;;1.33;;
18610;SDS011;9435;52.122;5.502;2023-06-14T10:22:49;3.83;;;1.50;;
18610;SDS011;9435;52.122;5.502;2023-06-14T10:25:25;2.53;;;1.50;;
18610;SDS011;9435;52.122;5.502;2023-06-14T10:28:03;6.40;;;2.17;;
18610;SDS011;9435;52.122;5.502;2023-06-14T10:31:03;5.97;;;1.48;;
18610;SDS011;9435;52.122;5.502;2023-06-14T10:33:31;7.15;;;1.85;;
18610;SDS011;9435;52.122;5.502;2023-06-14T10:36:08;4.32;;;1.50;;
18610;SDS011;9435;52.122;5.502;2023-06-14T10:38:36;3.42;;;1.60;;
18610;SDS011;9435;52.122;5.502;2023-06-14T10:41:04;3.00;;;1.40;;
18610;SDS011;9435;52.122;5.502;2023-06-14T10:43:34;6.05;;;1.70;;
18610;SDS011;9435;52.122;5.502;2023-06-14T10:46:16;7.90;;;1.60;;
18610;SDS011;9435;52.122;5.502;2023-06-14T10:48:48;3.95;;;1.45;;
18610;SDS011;9435;52.122;5.502;2023-06-14T10:51:16;6.85;;;1.70;;
18610;SDS011;9435;52.122;5.502;2023-06-14T10:53:45;3.28;;;1.50;;
18610;SDS011;9435;52.122;5.502;2023-06-14T10:56:23;4.20;;;1.63;;
18610;SDS011;9435;52.122;5.502;2023-06-14T10:58:54;5.28;;;1.58;;
18610;SDS011;9435;52.122;5.502;2023-06-14T11:01:32;4.93;;;1.33;;
18610;SDS011;9435;52.122;5.502;2023-06-14T11:04:12;3.58;;;1.40;;
18610;SDS011;9435;52.122;5.502;2023-06-14T11:06:45;3.42;;;1.65;;
18610;SDS011;9435;52.122;5.502;2023-06-14T11:09:20;2.92;;;1.40;;
18610;SDS011;9435;52.122;5.502;2023-06-14T11:12:08;3.25;;;1.75;;
18610;SDS011;9435;52.122;5.502;2023-06-14T11:14:38;9.35;;;2.13;;
18610;SDS011;9435;52.122;5.502;2023-06-14T11:17:05;3.88;;;1.52;;
18610;SDS011;9435;52.122;5.502;2023-06-14T11:19:33;4.03;;;1.52;;
18610;SDS011;9435;52.122;5.502;2023-06-14T11:22:01;5.72;;;1.60;;
18610;SDS011;9435;52.122;5.502;2023-06-14T11:24:28;5.45;;;1.65;;
18610;SDS011;9435;52.122;5.502;2023-06-14T11:26:55;4.95;;;1.83;;
18610;SDS011;9435;52.122;5.502;2023-06-14T11:29:23;4.78;;;1.80;;
18610;SDS011;9435;52.122;5.502;2023-06-14T11:31:52;5.18;;;1.80;;
18610;SDS011;9435;52.122;5.502;2023-06-14T11:34:19;3.80;;;1.40;;
18610;SDS011;9435;52.122;5.502;2023-06-14T11:36:46;4.28;;;1.70;;
18610;SDS011;9435;52.122;5.502;2023-06-14T11:39:14;6.78;;;1.70;;
18610;SDS011;9435;52.122;5.502;2023-06-14T11:41:41;3.20;;;1.65;;
18610;SDS011;9435;52.122;5.502;2023-06-14T11:44:10;4.60;;;1.67;;
18610;SDS011;9435;52.122;5.502;2023-06-14T11:46:38;2.30;;;1.50;;
18610;SDS011;9435;52.122;5.502;2023-06-14T11:49:06;3.10;;;1.70;;
18610;SDS011;9435;52.122;5.502;2023-06-14T11:51:34;4.20;;;1.70;;
18610;SDS011;9435;52.122;5.502;2023-06-14T11:54:02;2.67;;;1.60;;
18610;SDS011;9435;52.122;5.502;2023-06-14T11:56:30;3.78;;;1.60;;
18610;SDS011;9435;52.122;5.502;2023-06-14T11:58:58;2.00;;;1.50;;
18610;SDS011;9435;52.122;5.502;2023-06-14T12:01:25;3.38;;;1.60;;
18610;SDS011;9435;52.122;5.502;2023-06-14T12:03:53;4.10;;;1.60;;
18610;SDS011;9435;52.122;5.502;2023-06-14T12:06:29;2.28;;;1.35;;
18610;SDS011;9435;52.122;5.502;2023-06-14T12:09:02;4.47;;;1.60;;
18610;SDS011;9435;52.122;5.502;2023-06-14T12:11:32;3.80;;;1.50;;
18610;SDS011;9435;52.122;5.502;2023-06-14T12:14:00;3.67;;;1.60;;
18610;SDS011;9435;52.122;5.502;2023-06-14T12:16:32;4.57;;;1.63;;
18610;SDS011;9435;52.122;5.502;2023-06-14T12:19:01;5.43;;;1.80;;
18610;SDS011;9435;52.122;5.502;2023-06-14T12:21:38;2.53;;;1.60;;
18610;SDS011;9435;52.122;5.502;2023-06-14T12:24:07;5.10;;;1.60;;
18610;SDS011;9435;52.122;5.502;2023-06-14T12:26:37;6.65;;;1.70;;
18610;SDS011;9435;52.122;5.502;2023-06-14T12:29:06;4.10;;;1.58;;
18610;SDS011;9435;52.122;5.502;2023-06-14T12:31:33;7.68;;;1.75;;
18610;SDS011;9435;52.122;5.502;2023-06-14T12:34:00;4.32;;;1.60;;
18610;SDS011;9435;52.122;5.502;2023-06-14T12:36:27;2.13;;;1.50;;
18610;SDS011;9435;52.122;5.502;2023-06-14T12:38:56;4.65;;;1.65;;
18610;SDS011;9435;52.122;5.502;2023-06-14T12:41:23;1.85;;;1.35;;
18610;SDS011;9435;52.122;5.502;2023-06-14T12:43:51;3.35;;;1.30;;
18610;SDS011;9435;52.122;5.502;2023-06-14T12:46:18;4.05;;;1.40;;
18610;SDS011;9435;52.122;5.502;2023-06-14T12:48:46;3.30;;;1.40;;
18610;SDS011;9435;52.122;5.502;2023-06-14T12:51:13;3.85;;;1.70;;
18610;SDS011;9435;52.122;5.502;2023-06-14T12:53:40;3.97;;;1.50;;
18610;SDS011;9435;52.122;5.502;2023-06-14T12:56:08;3.90;;;1.77;;
18610;SDS011;9435;52.122;5.502;2023-06-14T12:58:35;4.43;;;1.30;;
18610;SDS011;9435;52.122;5.502;2023-06-14T13:01:02;3.25;;;1.50;;
18610;SDS011;9435;52.122;5.502;2023-06-14T13:03:29;3.78;;;1.58;;
18610;SDS011;9435;52.122;5.502;2023-06-14T13:05:58;5.75;;;1.70;;
18610;SDS011;9435;52.122;5.502;2023-06-14T13:08:25;4.15;;;1.67;;
18610;SDS011;9435;52.122;5.502;2023-06-14T13:10:53;3.95;;;1.52;;
18610;SDS011;9435;52.122;5.502;2023-06-14T13:13:21;3.30;;;1.55;;
18610;SDS011;9435;52.122;5.502;2023-06-14T13:15:49;8.35;;;1.77;;
18610;SDS011;9435;52.122;5.502;2023-06-14T13:18:16;4.43;;;1.75;;
18610;SDS011;9435;52.122;5.502;2023-06-14T13:20:44;3.75;;;1.60;;
18610;SDS011;9435;52.122;5.502;2023-06-14T13:23:12;4.22;;;2.00;;
18610;SDS011;9435;52.122;5.502;2023-06-14T13:25:39;6.47;;;1.73;;
18610;SDS011;9435;52.122;5.502;2023-06-14T13:28:06;4.32;;;1.90;;
18610;SDS011;9435;52.122;5.502;2023-06-14T13:30:35;4.10;;;1.70;;
18610;SDS011;9435;52.122;5.502;2023-06-14T13:33:03;5.75;;;1.67;;
18610;SDS011;9435;52.122;5.502;2023-06-14T13:35:30;5.60;;;1.90;;
18610;SDS011;9435;52.122;5.502;2023-06-14T13:37:57;3.67;;;2.10;;
18610;SDS011;9435;52.122;5.502;2023-06-14T13:40:24;2.95;;;1.60;;
18610;SDS011;9435;52.122;5.502;2023-06-14T13:42:51;4.75;;;1.60;;
18610;SDS011;9435;52.122;5.502;2023-06-14T13:45:18;6.47;;;2.20;;
18610;SDS011;9435;52.122;5.502;2023-06-14T13:47:47;4.72;;;1.42;;
18610;SDS011;9435;52.122;5.502;2023-06-14T13:50:17;5.35;;;1.58;;
18610;SDS011;9435;52.122;5.502;2023-06-14T13:52:45;4.43;;;1.30;;
18610;SDS011;9435;52.122;5.502;2023-06-14T13:55:12;3.65;;;1.60;;
18610;SDS011;9435;52.122;5.502;2023-06-14T13:57:39;4.43;;;1.60;;
18610;SDS011;9435;52.122;5.502;2023-06-14T14:00:07;8.07;;;1.90;;
18610;SDS011;9435;52.122;5.502;2023-06-14T14:02:34;2.47;;;1.50;;
18610;SDS011;9435;52.122;5.502;2023-06-14T14:05:10;3.22;;;1.40;;
18610;SDS011;9435;52.122;5.502;2023-06-14T14:07:38;3.75;;;1.50;;
18610;SDS011;9435;52.122;5.502;2023-06-14T14:10:05;5.43;;;1.48;;
18610;SDS011;9435;52.122;5.502;2023-06-14T14:12:33;4.57;;;1.50;;
18610;SDS011;9435;52.122;5.502;2023-06-14T14:15:00;2.65;;;1.25;;
18610;SDS011;9435;52.122;5.502;2023-06-14T14:17:27;3.83;;;1.33;;
18610;SDS011;9435;52.122;5.502;2023-06-14T14:19:54;2.90;;;1.27;;
18610;SDS011;9435;52.122;5.502;2023-06-14T14:22:23;3.58;;;1.30;;
18610;SDS011;9435;52.122;5.502;2023-06-14T14:24:50;2.72;;;1.45;;
18610;SDS011;9435;52.122;5.502;2023-06-14T14:27:17;3.65;;;1.40;;
18610;SDS011;9435;52.122;5.502;2023-06-14T14:29:44;3.60;;;1.30;;
18610;SDS011;9435;52.122;5.502;2023-06-14T14:32:11;4.32;;;1.40;;
18610;SDS011;9435;52.122;5.502;2023-06-14T14:34:40;5.22;;;1.38;;
18610;SDS011;9435;52.122;5.502;2023-06-14T14:37:07;6.82;;;1.33;;
18610;SDS011;9435;52.122;5.502;2023-06-14T14:39:36;3.17;;;1.30;;
18610;SDS011;9435;52.122;5.502;2023-06-14T14:42:03;4.03;;;1.20;;
18610;SDS011;9435;52.122;5.502;2023-06-14T14:44:32;2.30;;;1.35;;
18610;SDS011;9435;52.122;5.502;2023-06-14T14:47:00;3.10;;;1.30;;
18610;SDS011;9435;52.122;5.502;2023-06-14T14:49:27;4.43;;;1.50;;
18610;SDS011;9435;52.122;5.502;2023-06-14T14:51:55;3.30;;;1.30;;
18610;SDS011;9435;52.122;5.502;2023-06-14T14:54:22;3.25;;;1.20;;
18610;SDS011;9435;52.122;5.502;2023-06-14T14:56:51;3.28;;;1.60;;
18610;SDS011;9435;52.122;5.502;2023-06-14T14:59:18;2.58;;;1.48;;
18610;SDS011;9435;52.122;5.502;2023-06-14T15:01:47;3.35;;;1.20;;
18610;SDS011;9435;52.122;5.502;2023-06-14T15:04:14;2.60;;;1.23;;
18610;SDS011;9435;52.122;5.502;2023-06-14T15:06:41;2.00;;;1.40;;
18610;SDS011;9435;52.122;5.502;2023-06-14T15:09:08;3.20;;;1.27;;
18610;SDS011;9435;52.122;5.502;2023-06-14T15:11:35;7.18;;;1.50;;
18610;SDS011;9435;52.122;5.502;2023-06-14T15:14:04;8.13;;;1.38;;
18610;SDS011;9435;52.122;5.502;2023-06-14T15:16:31;3.42;;;1.40;;